Airport Name : Londonderry Eglinton

Other Name : Londonderry

ICAO : EGAE

IATA : LDY

FAA :

Latitude : 55.042778

Longitude : -7.161111

Country : United Kingdom

Local Date and Time : 19 Sep 2020 07:11

 

TAF (Terminal Aerodrome Forecast)

TAF EGAE 190527Z 1906/1915 08007KT 9999 FEW020 PROB30 TEMPO 1906/1909 7000 BKN014

 

METAR (METeorological Aerodrome Report)

EGAE 190550Z VRB02KT 9999 FEW011 05/04 Q1025

EGAE 190520Z 13004KT 9999 FEW008 06/05 Q1025

EGAE 190450Z VRB01KT CAVOK 08/07 Q1025

To Charter a Jet Click here.